sensor_id;sensor_type;location;lat;lon;timestamp;temperature;humidity
57026;DHT22;43961;52.940;6.834;2023-04-30T00:00:19;6.40;99.90
57026;DHT22;43961;52.940;6.834;2023-04-30T00:02:45;6.40;99.90
57026;DHT22;43961;52.940;6.834;2023-04-30T00:05:10;6.40;99.90
57026;DHT22;43961;52.940;6.834;2023-04-30T00:07:36;6.30;99.90
57026;DHT22;43961;52.940;6.834;2023-04-30T00:10:08;6.30;99.90
57026;DHT22;43961;52.940;6.834;2023-04-30T00:12:34;6.30;99.90
57026;DHT22;43961;52.940;6.834;2023-04-30T00:14:59;6.30;99.90
57026;DHT22;43961;52.940;6.834;2023-04-30T00:17:26;6.30;99.90
57026;DHT22;43961;52.940;6.834;2023-04-30T00:19:52;6.20;99.90
57026;DHT22;43961;52.940;6.834;2023-04-30T00:22:18;6.20;99.90
57026;DHT22;43961;52.940;6.834;2023-04-30T00:24:44;6.20;99.90
57026;DHT22;43961;52.940;6.834;2023-04-30T00:27:09;6.20;99.90
57026;DHT22;43961;52.940;6.834;2023-04-30T00:29:35;6.20;99.90
57026;DHT22;43961;52.940;6.834;2023-04-30T00:32:02;6.10;99.90
57026;DHT22;43961;52.940;6.834;2023-04-30T00:34:28;6.10;99.90
57026;DHT22;43961;52.940;6.834;2023-04-30T00:36:53;6.10;99.90
57026;DHT22;43961;52.940;6.834;2023-04-30T00:39:19;6.10;99.90
57026;DHT22;43961;52.940;6.834;2023-04-30T00:41:45;6.10;99.90
57026;DHT22;43961;52.940;6.834;2023-04-30T00:44:10;6.00;99.90
57026;DHT22;43961;52.940;6.834;2023-04-30T00:46:36;6.00;99.90
57026;DHT22;43961;52.940;6.834;2023-04-30T00:49:02;6.00;99.90
57026;DHT22;43961;52.940;6.834;2023-04-30T00:51:31;6.00;99.90
57026;DHT22;43961;52.940;6.834;2023-04-30T00:53:59;6.00;99.90
57026;DHT22;43961;52.940;6.834;2023-04-30T00:56:25;5.90;99.90
57026;DHT22;43961;52.940;6.834;2023-04-30T00:58:51;5.80;99.90
57026;DHT22;43961;52.940;6.834;2023-04-30T01:01:25;5.80;99.90
57026;DHT22;43961;52.940;6.834;2023-04-30T01:03:54;5.80;99.90
57026;DHT22;43961;52.940;6.834;2023-04-30T01:06:20;5.80;99.90
57026;DHT22;43961;52.940;6.834;2023-04-30T01:08:46;5.80;99.90
57026;DHT22;43961;52.940;6.834;2023-04-30T01:14:26;5.80;99.90
57026;DHT22;43961;52.940;6.834;2023-04-30T01:17:04;5.70;99.90
57026;DHT22;43961;52.940;6.834;2023-04-30T01:19:45;5.60;99.90
57026;DHT22;43961;52.940;6.834;2023-04-30T01:22:35;5.70;99.90
57026;DHT22;43961;52.940;6.834;2023-04-30T01:25:13;5.60;99.90
57026;DHT22;43961;52.940;6.834;2023-04-30T01:28:04;5.50;99.90
57026;DHT22;43961;52.940;6.834;2023-04-30T01:30:31;5.50;99.90
57026;DHT22;43961;52.940;6.834;2023-04-30T01:32:57;5.50;99.90
57026;DHT22;43961;52.940;6.834;2023-04-30T01:38:19;5.40;99.90
57026;DHT22;43961;52.940;6.834;2023-04-30T01:41:14;5.40;99.90
57026;DHT22;43961;52.940;6.834;2023-04-30T01:46:49;5.30;99.90
57026;DHT22;43961;52.940;6.834;2023-04-30T01:50:02;5.30;99.90
57026;DHT22;43961;52.940;6.834;2023-04-30T01:52:44;5.40;99.90
57026;DHT22;43961;52.940;6.834;2023-04-30T01:55:14;5.30;99.90
57026;DHT22;43961;52.940;6.834;2023-04-30T01:58:09;5.30;99.90
57026;DHT22;43961;52.940;6.834;2023-04-30T02:00:35;5.30;99.90
57026;DHT22;43961;52.940;6.834;2023-04-30T02:03:01;5.20;99.90
57026;DHT22;43961;52.940;6.834;2023-04-30T02:05:26;5.20;99.90
57026;DHT22;43961;52.940;6.834;2023-04-30T02:07:53;5.20;99.90
57026;DHT22;43961;52.940;6.834;2023-04-30T02:10:23;5.10;99.90
57026;DHT22;43961;52.940;6.834;2023-04-30T02:12:49;5.10;99.90
57026;DHT22;43961;52.940;6.834;2023-04-30T02:15:15;5.10;99.90
57026;DHT22;43961;52.940;6.834;2023-04-30T02:17:41;5.10;99.90
57026;DHT22;43961;52.940;6.834;2023-04-30T02:20:08;5.10;99.90
57026;DHT22;43961;52.940;6.834;2023-04-30T02:22:34;5.00;99.90
57026;DHT22;43961;52.940;6.834;2023-04-30T02:25:00;5.00;99.90
57026;DHT22;43961;52.940;6.834;2023-04-30T02:27:28;5.00;99.90
57026;DHT22;43961;52.940;6.834;2023-04-30T02:29:54;5.00;99.90
57026;DHT22;43961;52.940;6.834;2023-04-30T02:32:20;4.90;99.90
57026;DHT22;43961;52.940;6.834;2023-04-30T02:34:46;4.90;99.90
57026;DHT22;43961;52.940;6.834;2023-04-30T02:37:12;4.90;99.90
57026;DHT22;43961;52.940;6.834;2023-04-30T02:39:37;4.90;99.90
57026;DHT22;43961;52.940;6.834;2023-04-30T02:42:03;4.90;99.90
57026;DHT22;43961;52.940;6.834;2023-04-30T02:44:37;4.80;99.90
57026;DHT22;43961;52.940;6.834;2023-04-30T02:47:02;4.80;99.90
57026;DHT22;43961;52.940;6.834;2023-04-30T02:49:28;4.80;99.90
57026;DHT22;43961;52.940;6.834;2023-04-30T02:51:54;4.80;99.90
57026;DHT22;43961;52.940;6.834;2023-04-30T02:54:20;4.80;99.90
57026;DHT22;43961;52.940;6.834;2023-04-30T02:56:46;4.80;99.90
57026;DHT22;43961;52.940;6.834;2023-04-30T02:59:12;4.70;99.90
57026;DHT22;43961;52.940;6.834;2023-04-30T03:01:37;4.70;99.90
57026;DHT22;43961;52.940;6.834;2023-04-30T03:04:03;4.70;99.90
57026;DHT22;43961;52.940;6.834;2023-04-30T03:06:30;4.70;99.90
57026;DHT22;43961;52.940;6.834;2023-04-30T03:08:56;4.70;99.90
57026;DHT22;43961;52.940;6.834;2023-04-30T03:11:22;4.60;99.90
57026;DHT22;43961;52.940;6.834;2023-04-30T03:13:47;4.60;99.90
57026;DHT22;43961;52.940;6.834;2023-04-30T03:16:18;4.60;99.90
57026;DHT22;43961;52.940;6.834;2023-04-30T03:18:45;4.50;99.90
57026;DHT22;43961;52.940;6.834;2023-04-30T03:21:11;4.50;99.90
57026;DHT22;43961;52.940;6.834;2023-04-30T03:23:37;4.40;99.90
57026;DHT22;43961;52.940;6.834;2023-04-30T03:26:04;4.40;99.90
57026;DHT22;43961;52.940;6.834;2023-04-30T03:28:30;4.40;99.90
57026;DHT22;43961;52.940;6.834;2023-04-30T03:30:56;4.40;99.90
57026;DHT22;43961;52.940;6.834;2023-04-30T03:33:23;4.40;99.90
57026;DHT22;43961;52.940;6.834;2023-04-30T03:35:49;4.30;99.90
57026;DHT22;43961;52.940;6.834;2023-04-30T03:38:16;4.30;99.90
57026;DHT22;43961;52.940;6.834;2023-04-30T03:40:42;4.30;99.90
57026;DHT22;43961;52.940;6.834;2023-04-30T03:43:07;4.30;99.90
57026;DHT22;43961;52.940;6.834;2023-04-30T03:45:33;4.30;99.90
57026;DHT22;43961;52.940;6.834;2023-04-30T03:47:59;4.20;99.90
57026;DHT22;43961;52.940;6.834;2023-04-30T03:50:26;4.20;99.90
57026;DHT22;43961;52.940;6.834;2023-04-30T03:52:52;4.20;99.90
57026;DHT22;43961;52.940;6.834;2023-04-30T03:55:18;4.20;99.90
57026;DHT22;43961;52.940;6.834;2023-04-30T03:57:43;4.20;99.90
57026;DHT22;43961;52.940;6.834;2023-04-30T04:00:10;4.20;99.90
57026;DHT22;43961;52.940;6.834;2023-04-30T04:02:36;4.20;99.90
57026;DHT22;43961;52.940;6.834;2023-04-30T04:05:03;4.20;99.90
57026;DHT22;43961;52.940;6.834;2023-04-30T04:07:29;4.20;99.90
57026;DHT22;43961;52.940;6.834;2023-04-30T04:09:55;4.20;99.90
57026;DHT22;43961;52.940;6.834;2023-04-30T04:12:20;4.20;99.90
57026;DHT22;43961;52.940;6.834;2023-04-30T04:14:46;4.20;99.90
57026;DHT22;43961;52.940;6.834;2023-04-30T04:17:12;4.20;99.90
57026;DHT22;43961;52.940;6.834;2023-04-30T04:19:38;4.20;99.90
57026;DHT22;43961;52.940;6.834;2023-04-30T04:22:05;4.30;99.90
57026;DHT22;43961;52.940;6.834;2023-04-30T04:24:31;4.30;99.90
57026;DHT22;43961;52.940;6.834;2023-04-30T04:26:57;4.20;99.90
57026;DHT22;43961;52.940;6.834;2023-04-30T04:29:24;4.30;99.90
57026;DHT22;43961;52.940;6.834;2023-04-30T04:31:50;4.30;99.90
57026;DHT22;43961;52.940;6.834;2023-04-30T04:34:16;4.30;99.90
57026;DHT22;43961;52.940;6.834;2023-04-30T04:36:42;4.40;99.90
57026;DHT22;43961;52.940;6.834;2023-04-30T04:39:08;4.40;99.90
57026;DHT22;43961;52.940;6.834;2023-04-30T04:41:35;4.50;99.90
57026;DHT22;43961;52.940;6.834;2023-04-30T04:44:01;4.50;99.90
57026;DHT22;43961;52.940;6.834;2023-04-30T04:46:28;4.60;99.90
57026;DHT22;43961;52.940;6.834;2023-04-30T04:48:54;4.70;99.90
57026;DHT22;43961;52.940;6.834;2023-04-30T04:51:20;4.70;99.90
57026;DHT22;43961;52.940;6.834;2023-04-30T04:53:47;4.80;99.90
57026;DHT22;43961;52.940;6.834;2023-04-30T04:56:14;4.80;99.90
57026;DHT22;43961;52.940;6.834;2023-04-30T04:58:40;4.80;99.90
57026;DHT22;43961;52.940;6.834;2023-04-30T05:01:06;4.90;99.90
57026;DHT22;43961;52.940;6.834;2023-04-30T05:03:34;5.20;99.90
57026;DHT22;43961;52.940;6.834;2023-04-30T05:06:03;6.00;99.90
57026;DHT22;43961;52.940;6.834;2023-04-30T05:08:29;6.70;99.90
57026;DHT22;43961;52.940;6.834;2023-04-30T05:10:55;7.60;99.90
57026;DHT22;43961;52.940;6.834;2023-04-30T05:13:20;8.50;99.90
57026;DHT22;43961;52.940;6.834;2023-04-30T05:15:49;9.00;99.90
57026;DHT22;43961;52.940;6.834;2023-04-30T05:18:15;9.40;99.90
57026;DHT22;43961;52.940;6.834;2023-04-30T05:20:41;9.90;99.90
57026;DHT22;43961;52.940;6.834;2023-04-30T05:23:06;9.90;99.90
57026;DHT22;43961;52.940;6.834;2023-04-30T05:25:32;10.10;99.90
57026;DHT22;43961;52.940;6.834;2023-04-30T05:27:58;10.40;99.90
57026;DHT22;43961;52.940;6.834;2023-04-30T05:30:24;10.70;99.90
57026;DHT22;43961;52.940;6.834;2023-04-30T05:32:50;10.80;99.90
57026;DHT22;43961;52.940;6.834;2023-04-30T05:35:18;10.70;99.90
57026;DHT22;43961;52.940;6.834;2023-04-30T05:37:44;10.70;99.90
57026;DHT22;43961;52.940;6.834;2023-04-30T05:40:11;10.60;99.90
57026;DHT22;43961;52.940;6.834;2023-04-30T05:42:37;10.50;99.90
57026;DHT22;43961;52.940;6.834;2023-04-30T05:45:05;10.60;99.90
57026;DHT22;43961;52.940;6.834;2023-04-30T05:47:31;10.50;99.90
57026;DHT22;43961;52.940;6.834;2023-04-30T05:49:57;10.20;99.90
57026;DHT22;43961;52.940;6.834;2023-04-30T05:52:23;9.70;99.90
57026;DHT22;43961;52.940;6.834;2023-04-30T05:54:48;9.40;99.90
57026;DHT22;43961;52.940;6.834;2023-04-30T05:57:15;9.30;99.90
57026;DHT22;43961;52.940;6.834;2023-04-30T05:59:41;9.10;99.90
57026;DHT22;43961;52.940;6.834;2023-04-30T06:02:08;8.80;99.90
57026;DHT22;43961;52.940;6.834;2023-04-30T06:04:35;8.70;99.90
57026;DHT22;43961;52.940;6.834;2023-04-30T06:07:01;8.60;99.90
57026;DHT22;43961;52.940;6.834;2023-04-30T06:09:26;8.70;99.90
57026;DHT22;43961;52.940;6.834;2023-04-30T06:11:52;8.60;99.90
57026;DHT22;43961;52.940;6.834;2023-04-30T06:14:18;8.60;99.90
57026;DHT22;43961;52.940;6.834;2023-04-30T06:16:44;8.50;99.90
57026;DHT22;43961;52.940;6.834;2023-04-30T06:19:13;8.50;99.90
57026;DHT22;43961;52.940;6.834;2023-04-30T06:21:39;8.30;99.90
57026;DHT22;43961;52.940;6.834;2023-04-30T06:24:05;8.20;99.90
57026;DHT22;43961;52.940;6.834;2023-04-30T06:26:33;8.10;99.90
57026;DHT22;43961;52.940;6.834;2023-04-30T06:29:00;8.10;99.90
57026;DHT22;43961;52.940;6.834;2023-04-30T06:31:26;8.00;99.90
57026;DHT22;43961;52.940;6.834;2023-04-30T06:33:52;8.00;99.90
57026;DHT22;43961;52.940;6.834;2023-04-30T06:36:18;8.00;99.90
57026;DHT22;43961;52.940;6.834;2023-04-30T06:38:44;8.00;99.90
57026;DHT22;43961;52.940;6.834;2023-04-30T06:41:12;8.00;99.90
57026;DHT22;43961;52.940;6.834;2023-04-30T06:43:38;8.10;99.90
57026;DHT22;43961;52.940;6.834;2023-04-30T06:46:05;8.20;99.90
57026;DHT22;43961;52.940;6.834;2023-04-30T06:48:33;8.20;99.90
57026;DHT22;43961;52.940;6.834;2023-04-30T06:50:59;8.40;99.90
57026;DHT22;43961;52.940;6.834;2023-04-30T06:53:25;8.50;99.90
57026;DHT22;43961;52.940;6.834;2023-04-30T06:55:51;8.60;99.90
57026;DHT22;43961;52.940;6.834;2023-04-30T06:58:17;8.70;99.90
57026;DHT22;43961;52.940;6.834;2023-04-30T07:00:44;8.90;99.90
57026;DHT22;43961;52.940;6.834;2023-04-30T07:03:10;9.20;99.90
57026;DHT22;43961;52.940;6.834;2023-04-30T07:05:35;9.40;99.90
57026;DHT22;43961;52.940;6.834;2023-04-30T07:08:02;9.50;99.90
57026;DHT22;43961;52.940;6.834;2023-04-30T07:10:28;9.50;99.90
57026;DHT22;43961;52.940;6.834;2023-04-30T07:12:55;9.60;99.90
57026;DHT22;43961;52.940;6.834;2023-04-30T07:15:21;9.70;99.90
57026;DHT22;43961;52.940;6.834;2023-04-30T07:17:46;9.70;99.90
57026;DHT22;43961;52.940;6.834;2023-04-30T07:20:12;9.90;99.90
57026;DHT22;43961;52.940;6.834;2023-04-30T07:22:41;9.90;99.90
57026;DHT22;43961;52.940;6.834;2023-04-30T07:25:09;10.00;99.90
57026;DHT22;43961;52.940;6.834;2023-04-30T07:27:36;10.10;99.90
57026;DHT22;43961;52.940;6.834;2023-04-30T07:30:03;10.10;99.90
57026;DHT22;43961;52.940;6.834;2023-04-30T07:32:29;10.20;99.90
57026;DHT22;43961;52.940;6.834;2023-04-30T07:34:55;10.30;99.90
57026;DHT22;43961;52.940;6.834;2023-04-30T07:37:21;10.30;99.90
57026;DHT22;43961;52.940;6.834;2023-04-30T07:39:48;10.30;99.90
57026;DHT22;43961;52.940;6.834;2023-04-30T07:42:13;10.30;99.90
57026;DHT22;43961;52.940;6.834;2023-04-30T07:44:39;10.40;99.90
57026;DHT22;43961;52.940;6.834;2023-04-30T07:47:06;10.50;99.90
57026;DHT22;43961;52.940;6.834;2023-04-30T07:49:32;10.60;99.90
57026;DHT22;43961;52.940;6.834;2023-04-30T07:51:58;10.70;99.90
57026;DHT22;43961;52.940;6.834;2023-04-30T07:54:25;10.60;99.90
57026;DHT22;43961;52.940;6.834;2023-04-30T07:56:52;10.60;99.90
57026;DHT22;43961;52.940;6.834;2023-04-30T07:59:18;10.60;99.90
57026;DHT22;43961;52.940;6.834;2023-04-30T08:01:45;10.70;99.90
57026;DHT22;43961;52.940;6.834;2023-04-30T08:04:11;10.60;99.90
57026;DHT22;43961;52.940;6.834;2023-04-30T08:06:37;10.50;99.90
57026;DHT22;43961;52.940;6.834;2023-04-30T08:09:03;10.60;99.90
57026;DHT22;43961;52.940;6.834;2023-04-30T08:11:29;10.60;99.90
57026;DHT22;43961;52.940;6.834;2023-04-30T08:13:54;10.70;99.90
57026;DHT22;43961;52.940;6.834;2023-04-30T08:16:20;10.70;99.90
57026;DHT22;43961;52.940;6.834;2023-04-30T08:18:46;10.80;99.90
57026;DHT22;43961;52.940;6.834;2023-04-30T08:21:14;10.80;99.90
57026;DHT22;43961;52.940;6.834;2023-04-30T08:23:39;10.80;99.90
57026;DHT22;43961;52.940;6.834;2023-04-30T08:26:05;10.90;99.90
57026;DHT22;43961;52.940;6.834;2023-04-30T08:28:31;10.80;99.90
57026;DHT22;43961;52.940;6.834;2023-04-30T08:30:56;10.90;99.90
57026;DHT22;43961;52.940;6.834;2023-04-30T08:33:22;11.00;99.90
57026;DHT22;43961;52.940;6.834;2023-04-30T08:35:48;10.90;99.90
57026;DHT22;43961;52.940;6.834;2023-04-30T08:38:13;11.00;99.90
57026;DHT22;43961;52.940;6.834;2023-04-30T08:40:39;11.10;99.90
57026;DHT22;43961;52.940;6.834;2023-04-30T08:43:08;11.20;99.90
57026;DHT22;43961;52.940;6.834;2023-04-30T08:45:34;11.30;99.90
57026;DHT22;43961;52.940;6.834;2023-04-30T08:48:02;11.50;99.90
57026;DHT22;43961;52.940;6.834;2023-04-30T08:50:29;11.50;99.90
57026;DHT22;43961;52.940;6.834;2023-04-30T08:52:57;11.60;99.90
57026;DHT22;43961;52.940;6.834;2023-04-30T08:55:25;11.70;99.90
57026;DHT22;43961;52.940;6.834;2023-04-30T08:57:51;11.80;99.90
57026;DHT22;43961;52.940;6.834;2023-04-30T09:00:17;12.00;99.90
57026;DHT22;43961;52.940;6.834;2023-04-30T09:02:44;11.90;99.90
57026;DHT22;43961;52.940;6.834;2023-04-30T09:05:12;11.90;99.90
57026;DHT22;43961;52.940;6.834;2023-04-30T09:07:40;11.80;99.90
57026;DHT22;43961;52.940;6.834;2023-04-30T09:10:19;12.00;99.90
57026;DHT22;43961;52.940;6.834;2023-04-30T09:13:03;12.10;99.90
57026;DHT22;43961;52.940;6.834;2023-04-30T09:15:30;12.20;99.90
57026;DHT22;43961;52.940;6.834;2023-04-30T09:18:26;12.30;99.90
57026;DHT22;43961;52.940;6.834;2023-04-30T09:21:01;12.30;99.90
57026;DHT22;43961;52.940;6.834;2023-04-30T09:23:28;12.50;99.90
57026;DHT22;43961;52.940;6.834;2023-04-30T09:25:55;12.60;99.90
57026;DHT22;43961;52.940;6.834;2023-04-30T09:28:25;12.70;99.90
57026;DHT22;43961;52.940;6.834;2023-04-30T09:30:56;12.50;99.90
57026;DHT22;43961;52.940;6.834;2023-04-30T09:33:22;12.50;99.90
57026;DHT22;43961;52.940;6.834;2023-04-30T09:35:48;12.60;99.90
57026;DHT22;43961;52.940;6.834;2023-04-30T09:38:30;12.90;99.90
57026;DHT22;43961;52.940;6.834;2023-04-30T09:41:00;13.20;98.30
57026;DHT22;43961;52.940;6.834;2023-04-30T09:43:27;13.40;95.90
57026;DHT22;43961;52.940;6.834;2023-04-30T09:45:57;13.70;96.30
57026;DHT22;43961;52.940;6.834;2023-04-30T09:48:25;13.80;92.70
57026;DHT22;43961;52.940;6.834;2023-04-30T09:50:52;13.80;92.50
57026;DHT22;43961;52.940;6.834;2023-04-30T09:53:19;13.80;91.40
57026;DHT22;43961;52.940;6.834;2023-04-30T09:55:46;14.10;92.30
57026;DHT22;43961;52.940;6.834;2023-04-30T09:58:13;14.20;90.10
57026;DHT22;43961;52.940;6.834;2023-04-30T10:00:39;14.20;87.40
57026;DHT22;43961;52.940;6.834;2023-04-30T10:03:07;14.20;87.60
57026;DHT22;43961;52.940;6.834;2023-04-30T10:05:37;14.30;91.20
57026;DHT22;43961;52.940;6.834;2023-04-30T10:08:12;14.60;89.30
57026;DHT22;43961;52.940;6.834;2023-04-30T10:10:39;14.70;88.50
57026;DHT22;43961;52.940;6.834;2023-04-30T10:13:13;14.70;85.60
57026;DHT22;43961;52.940;6.834;2023-04-30T10:15:43;14.60;84.60
57026;DHT22;43961;52.940;6.834;2023-04-30T10:18:18;14.60;85.60
57026;DHT22;43961;52.940;6.834;2023-04-30T10:20:46;14.50;82.90
57026;DHT22;43961;52.940;6.834;2023-04-30T10:23:13;14.50;83.60
57026;DHT22;43961;52.940;6.834;2023-04-30T10:25:39;14.50;82.20
57026;DHT22;43961;52.940;6.834;2023-04-30T10:28:07;14.60;83.50
57026;DHT22;43961;52.940;6.834;2023-04-30T10:30:34;14.60;81.00
57026;DHT22;43961;52.940;6.834;2023-04-30T10:38:22;14.90;76.70
57026;DHT22;43961;52.940;6.834;2023-04-30T10:40:50;15.00;80.20
57026;DHT22;43961;52.940;6.834;2023-04-30T10:43:19;15.10;82.30
57026;DHT22;43961;52.940;6.834;2023-04-30T10:45:47;15.40;79.60
57026;DHT22;43961;52.940;6.834;2023-04-30T10:48:14;15.30;79.00
57026;DHT22;43961;52.940;6.834;2023-04-30T10:50:42;15.30;81.50
57026;DHT22;43961;52.940;6.834;2023-04-30T10:53:13;15.30;81.30
57026;DHT22;43961;52.940;6.834;2023-04-30T10:58:42;15.20;80.20
57026;DHT22;43961;52.940;6.834;2023-04-30T11:01:14;15.30;79.50
57026;DHT22;43961;52.940;6.834;2023-04-30T11:03:43;15.40;80.10
57026;DHT22;43961;52.940;6.834;2023-04-30T11:09:40;15.70;82.90
57026;DHT22;43961;52.940;6.834;2023-04-30T11:12:11;15.90;79.70
57026;DHT22;43961;52.940;6.834;2023-04-30T11:14:41;15.60;79.70
57026;DHT22;43961;52.940;6.834;2023-04-30T11:17:13;15.60;77.90
57026;DHT22;43961;52.940;6.834;2023-04-30T11:19:47;15.70;79.50
57026;DHT22;43961;52.940;6.834;2023-04-30T11:24:53;16.00;79.90
57026;DHT22;43961;52.940;6.834;2023-04-30T11:27:27;15.90;76.10
57026;DHT22;43961;52.940;6.834;2023-04-30T11:29:53;16.00;77.90
57026;DHT22;43961;52.940;6.834;2023-04-30T11:32:21;16.20;79.00
57026;DHT22;43961;52.940;6.834;2023-04-30T11:34:47;16.10;76.40
57026;DHT22;43961;52.940;6.834;2023-04-30T11:37:19;15.90;75.50
57026;DHT22;43961;52.940;6.834;2023-04-30T11:39:47;15.90;77.40
57026;DHT22;43961;52.940;6.834;2023-04-30T11:42:19;16.00;77.80
57026;DHT22;43961;52.940;6.834;2023-04-30T11:44:45;16.00;77.10
57026;DHT22;43961;52.940;6.834;2023-04-30T11:47:14;15.70;76.10
57026;DHT22;43961;52.940;6.834;2023-04-30T11:49:43;15.60;77.30
57026;DHT22;43961;52.940;6.834;2023-04-30T11:52:12;15.50;78.20
57026;DHT22;43961;52.940;6.834;2023-04-30T11:54:38;15.60;78.90
57026;DHT22;43961;52.940;6.834;2023-04-30T11:57:04;16.00;78.50
57026;DHT22;43961;52.940;6.834;2023-04-30T11:59:31;16.10;77.70
57026;DHT22;43961;52.940;6.834;2023-04-30T12:01:57;16.30;76.30
57026;DHT22;43961;52.940;6.834;2023-04-30T12:04:23;16.10;75.60
57026;DHT22;43961;52.940;6.834;2023-04-30T12:06:49;15.80;75.50
57026;DHT22;43961;52.940;6.834;2023-04-30T12:09:15;15.70;76.10
57026;DHT22;43961;52.940;6.834;2023-04-30T12:11:40;15.60;76.40
57026;DHT22;43961;52.940;6.834;2023-04-30T12:14:08;15.60;76.20
57026;DHT22;43961;52.940;6.834;2023-04-30T12:16:43;15.70;77.60
57026;DHT22;43961;52.940;6.834;2023-04-30T12:19:10;16.20;78.00
57026;DHT22;43961;52.940;6.834;2023-04-30T12:21:37;16.50;76.90
57026;DHT22;43961;52.940;6.834;2023-04-30T12:24:03;16.50;74.10
57026;DHT22;43961;52.940;6.834;2023-04-30T12:26:36;16.50;73.40
57026;DHT22;43961;52.940;6.834;2023-04-30T12:29:07;16.60;72.40
57026;DHT22;43961;52.940;6.834;2023-04-30T12:31:33;16.50;72.50
57026;DHT22;43961;52.940;6.834;2023-04-30T12:34:08;16.40;72.90
57026;DHT22;43961;52.940;6.834;2023-04-30T12:36:34;16.50;73.00
57026;DHT22;43961;52.940;6.834;2023-04-30T12:41:41;16.70;72.50
57026;DHT22;43961;52.940;6.834;2023-04-30T12:44:22;16.60;71.70
57026;DHT22;43961;52.940;6.834;2023-04-30T12:46:50;16.50;72.30
57026;DHT22;43961;52.940;6.834;2023-04-30T12:49:33;16.40;72.00
57026;DHT22;43961;52.940;6.834;2023-04-30T12:52:07;16.30;71.90
57026;DHT22;43961;52.940;6.834;2023-04-30T12:54:35;16.40;72.70
57026;DHT22;43961;52.940;6.834;2023-04-30T12:57:03;16.60;72.10
57026;DHT22;43961;52.940;6.834;2023-04-30T12:59:30;16.60;71.50
57026;DHT22;43961;52.940;6.834;2023-04-30T13:02:13;16.60;72.10
57026;DHT22;43961;52.940;6.834;2023-04-30T13:04:43;16.50;71.90
57026;DHT22;43961;52.940;6.834;2023-04-30T13:07:10;16.40;72.00
57026;DHT22;43961;52.940;6.834;2023-04-30T13:09:37;16.60;72.10
57026;DHT22;43961;52.940;6.834;2023-04-30T13:12:03;16.80;71.20
57026;DHT22;43961;52.940;6.834;2023-04-30T13:14:31;16.90;71.40
57026;DHT22;43961;52.940;6.834;2023-04-30T13:16:57;16.90;70.90
57026;DHT22;43961;52.940;6.834;2023-04-30T13:19:22;16.90;69.70
57026;DHT22;43961;52.940;6.834;2023-04-30T13:21:48;16.70;69.70
57026;DHT22;43961;52.940;6.834;2023-04-30T13:24:14;16.60;69.70
57026;DHT22;43961;52.940;6.834;2023-04-30T13:26:40;16.60;69.80
57026;DHT22;43961;52.940;6.834;2023-04-30T13:29:06;16.70;69.60
57026;DHT22;43961;52.940;6.834;2023-04-30T13:31:32;16.90;70.20
57026;DHT22;43961;52.940;6.834;2023-04-30T13:33:57;16.90;68.70
57026;DHT22;43961;52.940;6.834;2023-04-30T13:36:23;16.90;68.20
57026;DHT22;43961;52.940;6.834;2023-04-30T13:38:49;16.80;67.60
57026;DHT22;43961;52.940;6.834;2023-04-30T13:41:18;16.90;68.50
57026;DHT22;43961;52.940;6.834;2023-04-30T13:43:46;17.10;68.70
57026;DHT22;43961;52.940;6.834;2023-04-30T13:46:13;17.20;68.10
57026;DHT22;43961;52.940;6.834;2023-04-30T13:48:39;17.20;68.60
57026;DHT22;43961;52.940;6.834;2023-04-30T13:51:05;17.00;67.80
57026;DHT22;43961;52.940;6.834;2023-04-30T13:53:31;16.90;67.60
57026;DHT22;43961;52.940;6.834;2023-04-30T13:55:57;17.00;68.90
57026;DHT22;43961;52.940;6.834;2023-04-30T13:58:24;17.10;68.20
57026;DHT22;43961;52.940;6.834;2023-04-30T14:00:50;17.20;67.50
57026;DHT22;43961;52.940;6.834;2023-04-30T14:03:17;17.30;66.70
57026;DHT22;43961;52.940;6.834;2023-04-30T14:05:44;17.40;67.70
57026;DHT22;43961;52.940;6.834;2023-04-30T14:08:10;17.60;67.50
57026;DHT22;43961;52.940;6.834;2023-04-30T14:10:37;17.60;66.40
57026;DHT22;43961;52.940;6.834;2023-04-30T14:13:02;17.30;65.00
57026;DHT22;43961;52.940;6.834;2023-04-30T14:15:29;17.20;66.10
57026;DHT22;43961;52.940;6.834;2023-04-30T14:17:57;17.00;66.20
57026;DHT22;43961;52.940;6.834;2023-04-30T14:20:23;16.90;65.80
57026;DHT22;43961;52.940;6.834;2023-04-30T14:22:49;17.00;65.10
57026;DHT22;43961;52.940;6.834;2023-04-30T14:25:15;17.00;65.50
57026;DHT22;43961;52.940;6.834;2023-04-30T14:27:41;17.00;65.60
57026;DHT22;43961;52.940;6.834;2023-04-30T14:30:07;16.80;65.40
57026;DHT22;43961;52.940;6.834;2023-04-30T14:32:33;16.70;65.10
57026;DHT22;43961;52.940;6.834;2023-04-30T14:34:59;16.60;65.40
57026;DHT22;43961;52.940;6.834;2023-04-30T14:37:24;16.60;65.60
57026;DHT22;43961;52.940;6.834;2023-04-30T14:39:50;16.60;65.60
57026;DHT22;43961;52.940;6.834;2023-04-30T14:42:16;16.60;66.10
57026;DHT22;43961;52.940;6.834;2023-04-30T14:44:42;16.70;67.20
57026;DHT22;43961;52.940;6.834;2023-04-30T14:47:09;16.80;66.80
57026;DHT22;43961;52.940;6.834;2023-04-30T14:49:34;16.90;66.00
57026;DHT22;43961;52.940;6.834;2023-04-30T14:52:00;17.00;65.90
57026;DHT22;43961;52.940;6.834;2023-04-30T14:54:26;17.10;65.20
57026;DHT22;43961;52.940;6.834;2023-04-30T14:56:53;17.20;65.30
57026;DHT22;43961;52.940;6.834;2023-04-30T14:59:19;17.20;65.10
57026;DHT22;43961;52.940;6.834;2023-04-30T15:01:44;17.20;65.10
57026;DHT22;43961;52.940;6.834;2023-04-30T15:04:10;17.00;64.40
57026;DHT22;43961;52.940;6.834;2023-04-30T15:06:36;16.90;64.90
57026;DHT22;43961;52.940;6.834;2023-04-30T15:09:02;16.80;64.20
57026;DHT22;43961;52.940;6.834;2023-04-30T15:11:28;16.70;66.20
57026;DHT22;43961;52.940;6.834;2023-04-30T15:13:54;16.70;65.00
57026;DHT22;43961;52.940;6.834;2023-04-30T15:16:20;16.70;64.90
57026;DHT22;43961;52.940;6.834;2023-04-30T15:18:46;16.60;64.40
57026;DHT22;43961;52.940;6.834;2023-04-30T15:21:13;16.60;65.20
57026;DHT22;43961;52.940;6.834;2023-04-30T15:23:39;16.70;65.40
57026;DHT22;43961;52.940;6.834;2023-04-30T15:26:05;16.70;65.10
57026;DHT22;43961;52.940;6.834;2023-04-30T15:28:31;16.70;65.20
57026;DHT22;43961;52.940;6.834;2023-04-30T15:30:57;16.60;64.40
57026;DHT22;43961;52.940;6.834;2023-04-30T15:33:24;16.50;65.10
57026;DHT22;43961;52.940;6.834;2023-04-30T15:35:53;16.50;65.30
57026;DHT22;43961;52.940;6.834;2023-04-30T15:38:19;16.60;65.70
57026;DHT22;43961;52.940;6.834;2023-04-30T15:40:45;16.60;66.40
57026;DHT22;43961;52.940;6.834;2023-04-30T15:43:11;16.70;66.30
57026;DHT22;43961;52.940;6.834;2023-04-30T15:45:37;16.80;65.90
57026;DHT22;43961;52.940;6.834;2023-04-30T15:48:03;16.90;65.80
57026;DHT22;43961;52.940;6.834;2023-04-30T15:50:30;16.90;65.40
57026;DHT22;43961;52.940;6.834;2023-04-30T15:52:56;17.00;64.90
57026;DHT22;43961;52.940;6.834;2023-04-30T15:55:22;17.10;64.30
57026;DHT22;43961;52.940;6.834;2023-04-30T15:57:48;17.10;64.60
57026;DHT22;43961;52.940;6.834;2023-04-30T16:00:14;17.10;65.00
57026;DHT22;43961;52.940;6.834;2023-04-30T16:02:40;16.90;65.20
57026;DHT22;43961;52.940;6.834;2023-04-30T16:05:06;16.80;65.50